sensor_id;sensor_type;location;lat;lon;timestamp;pressure;altitude;pressure_sealevel;temperature
5571;BMP180;2808;51.240;6.794;2022-08-19T00:00:39;100829.00;;;21.50
5571;BMP180;2808;51.240;6.794;2022-08-19T00:03:07;100824.00;;;21.50
5571;BMP180;2808;51.240;6.794;2022-08-19T00:05:34;100836.00;;;21.50
5571;BMP180;2808;51.240;6.794;2022-08-19T00:08:03;100839.00;;;21.50
5571;BMP180;2808;51.240;6.794;2022-08-19T00:10:31;100839.00;;;21.50
5571;BMP180;2808;51.240;6.794;2022-08-19T00:13:00;100837.00;;;21.50
5571;BMP180;2808;51.240;6.794;2022-08-19T00:15:27;100837.00;;;21.60
5571;BMP180;2808;51.240;6.794;2022-08-19T00:17:54;100831.00;;;21.60
5571;BMP180;2808;51.240;6.794;2022-08-19T00:20:22;100838.00;;;21.50
5571;BMP180;2808;51.240;6.794;2022-08-19T00:22:50;100836.00;;;21.50
5571;BMP180;2808;51.240;6.794;2022-08-19T00:25:19;100829.00;;;21.50
5571;BMP180;2808;51.240;6.794;2022-08-19T00:27:46;100820.00;;;21.50
5571;BMP180;2808;51.240;6.794;2022-08-19T00:30:14;100830.00;;;21.50
5571;BMP180;2808;51.240;6.794;2022-08-19T00:32:42;100826.00;;;21.50
5571;BMP180;2808;51.240;6.794;2022-08-19T00:35:09;100827.00;;;21.40
5571;BMP180;2808;51.240;6.794;2022-08-19T00:37:37;100824.00;;;21.40
5571;BMP180;2808;51.240;6.794;2022-08-19T00:40:10;100826.00;;;21.40
5571;BMP180;2808;51.240;6.794;2022-08-19T00:42:40;100833.00;;;21.30
5571;BMP180;2808;51.240;6.794;2022-08-19T00:45:12;100837.00;;;21.30
5571;BMP180;2808;51.240;6.794;2022-08-19T00:47:40;100828.00;;;21.30
5571;BMP180;2808;51.240;6.794;2022-08-19T00:50:09;100821.00;;;21.30
5571;BMP180;2808;51.240;6.794;2022-08-19T00:52:39;100824.00;;;21.30
5571;BMP180;2808;51.240;6.794;2022-08-19T00:55:14;100822.00;;;21.20
5571;BMP180;2808;51.240;6.794;2022-08-19T00:57:48;100815.00;;;21.20
5571;BMP180;2808;51.240;6.794;2022-08-19T01:00:18;100815.00;;;21.20
5571;BMP180;2808;51.240;6.794;2022-08-19T01:02:46;100818.00;;;21.10
5571;BMP180;2808;51.240;6.794;2022-08-19T01:05:17;100816.00;;;21.10
5571;BMP180;2808;51.240;6.794;2022-08-19T01:07:47;100823.00;;;21.10
5571;BMP180;2808;51.240;6.794;2022-08-19T01:10:19;100825.00;;;21.10
5571;BMP180;2808;51.240;6.794;2022-08-19T01:12:49;100830.00;;;21.00
5571;BMP180;2808;51.240;6.794;2022-08-19T01:15:18;100818.00;;;20.90
5571;BMP180;2808;51.240;6.794;2022-08-19T01:17:47;100823.00;;;20.90
5571;BMP180;2808;51.240;6.794;2022-08-19T01:20:20;100820.00;;;20.90
5571;BMP180;2808;51.240;6.794;2022-08-19T01:22:52;100820.00;;;20.90
5571;BMP180;2808;51.240;6.794;2022-08-19T01:25:26;100821.00;;;20.90
5571;BMP180;2808;51.240;6.794;2022-08-19T01:27:54;100825.00;;;20.80
5571;BMP180;2808;51.240;6.794;2022-08-19T01:30:28;100822.00;;;20.80
5571;BMP180;2808;51.240;6.794;2022-08-19T01:32:57;100817.00;;;20.80
5571;BMP180;2808;51.240;6.794;2022-08-19T01:35:28;100816.00;;;20.70
5571;BMP180;2808;51.240;6.794;2022-08-19T01:38:00;100817.00;;;20.60
5571;BMP180;2808;51.240;6.794;2022-08-19T01:40:29;100817.00;;;20.60
5571;BMP180;2808;51.240;6.794;2022-08-19T01:42:57;100817.00;;;20.50
5571;BMP180;2808;51.240;6.794;2022-08-19T01:45:27;100815.00;;;20.40
5571;BMP180;2808;51.240;6.794;2022-08-19T01:47:56;100822.00;;;20.40
5571;BMP180;2808;51.240;6.794;2022-08-19T01:50:23;100821.00;;;20.30
5571;BMP180;2808;51.240;6.794;2022-08-19T01:52:52;100819.00;;;20.30
5571;BMP180;2808;51.240;6.794;2022-08-19T01:55:22;100824.00;;;20.30
5571;BMP180;2808;51.240;6.794;2022-08-19T01:57:53;100819.00;;;20.20
5571;BMP180;2808;51.240;6.794;2022-08-19T02:00:25;100820.00;;;20.20
5571;BMP180;2808;51.240;6.794;2022-08-19T02:02:53;100811.00;;;20.20
5571;BMP180;2808;51.240;6.794;2022-08-19T02:05:20;100813.00;;;20.20
5571;BMP180;2808;51.240;6.794;2022-08-19T02:07:48;100816.00;;;20.20
5571;BMP180;2808;51.240;6.794;2022-08-19T02:10:21;100812.00;;;20.30
5571;BMP180;2808;51.240;6.794;2022-08-19T02:12:49;100807.00;;;20.30
5571;BMP180;2808;51.240;6.794;2022-08-19T02:15:17;100799.00;;;20.30
5571;BMP180;2808;51.240;6.794;2022-08-19T02:17:47;100797.00;;;20.30
5571;BMP180;2808;51.240;6.794;2022-08-19T02:20:15;100801.00;;;20.30
5571;BMP180;2808;51.240;6.794;2022-08-19T02:22:43;100807.00;;;20.30
5571;BMP180;2808;51.240;6.794;2022-08-19T02:25:11;100805.00;;;20.30
5571;BMP180;2808;51.240;6.794;2022-08-19T02:27:41;100820.00;;;20.30
5571;BMP180;2808;51.240;6.794;2022-08-19T02:30:13;100808.00;;;20.30
5571;BMP180;2808;51.240;6.794;2022-08-19T02:32:41;100811.00;;;20.30
5571;BMP180;2808;51.240;6.794;2022-08-19T02:35:10;100812.00;;;20.30
5571;BMP180;2808;51.240;6.794;2022-08-19T02:37:37;100813.00;;;20.30
5571;BMP180;2808;51.240;6.794;2022-08-19T02:40:22;100802.00;;;20.30
5571;BMP180;2808;51.240;6.794;2022-08-19T02:42:54;100810.00;;;20.30
5571;BMP180;2808;51.240;6.794;2022-08-19T02:45:22;100817.00;;;20.30
5571;BMP180;2808;51.240;6.794;2022-08-19T02:47:50;100822.00;;;20.30
5571;BMP180;2808;51.240;6.794;2022-08-19T02:50:17;100821.00;;;20.30
5571;BMP180;2808;51.240;6.794;2022-08-19T02:52:45;100824.00;;;20.30
5571;BMP180;2808;51.240;6.794;2022-08-19T02:55:12;100825.00;;;20.20
5571;BMP180;2808;51.240;6.794;2022-08-19T02:57:39;100832.00;;;20.20
5571;BMP180;2808;51.240;6.794;2022-08-19T03:00:10;100843.00;;;20.30
5571;BMP180;2808;51.240;6.794;2022-08-19T03:02:38;100844.00;;;20.30
5571;BMP180;2808;51.240;6.794;2022-08-19T03:05:08;100833.00;;;20.30
5571;BMP180;2808;51.240;6.794;2022-08-19T03:07:36;100847.00;;;20.30
5571;BMP180;2808;51.240;6.794;2022-08-19T03:10:05;100850.00;;;20.30
5571;BMP180;2808;51.240;6.794;2022-08-19T03:12:36;100835.00;;;20.30
5571;BMP180;2808;51.240;6.794;2022-08-19T03:15:07;100826.00;;;20.30
5571;BMP180;2808;51.240;6.794;2022-08-19T03:17:37;100821.00;;;20.30
5571;BMP180;2808;51.240;6.794;2022-08-19T03:20:05;100823.00;;;20.20
5571;BMP180;2808;51.240;6.794;2022-08-19T03:22:33;100817.00;;;20.20
5571;BMP180;2808;51.240;6.794;2022-08-19T03:25:00;100823.00;;;20.20
5571;BMP180;2808;51.240;6.794;2022-08-19T03:27:28;100826.00;;;20.20
5571;BMP180;2808;51.240;6.794;2022-08-19T03:29:55;100831.00;;;20.20
5571;BMP180;2808;51.240;6.794;2022-08-19T03:32:23;100832.00;;;20.10
5571;BMP180;2808;51.240;6.794;2022-08-19T03:34:52;100837.00;;;20.20
5571;BMP180;2808;51.240;6.794;2022-08-19T03:37:19;100832.00;;;20.10
5571;BMP180;2808;51.240;6.794;2022-08-19T03:39:48;100836.00;;;20.20
5571;BMP180;2808;51.240;6.794;2022-08-19T03:42:19;100835.00;;;20.20
5571;BMP180;2808;51.240;6.794;2022-08-19T03:44:46;100835.00;;;20.20
5571;BMP180;2808;51.240;6.794;2022-08-19T03:47:14;100832.00;;;20.20
5571;BMP180;2808;51.240;6.794;2022-08-19T03:49:42;100828.00;;;20.10
5571;BMP180;2808;51.240;6.794;2022-08-19T03:52:11;100827.00;;;20.20
5571;BMP180;2808;51.240;6.794;2022-08-19T03:54:40;100831.00;;;20.10
5571;BMP180;2808;51.240;6.794;2022-08-19T03:57:07;100830.00;;;20.20
5571;BMP180;2808;51.240;6.794;2022-08-19T03:59:39;100843.00;;;20.20
5571;BMP180;2808;51.240;6.794;2022-08-19T04:02:10;100834.00;;;20.20
5571;BMP180;2808;51.240;6.794;2022-08-19T04:04:39;100850.00;;;20.10
5571;BMP180;2808;51.240;6.794;2022-08-19T04:07:06;100839.00;;;20.10
5571;BMP180;2808;51.240;6.794;2022-08-19T04:09:37;100837.00;;;20.00
5571;BMP180;2808;51.240;6.794;2022-08-19T04:12:07;100834.00;;;20.00
5571;BMP180;2808;51.240;6.794;2022-08-19T04:14:35;100831.00;;;19.90
5571;BMP180;2808;51.240;6.794;2022-08-19T04:17:03;100837.00;;;19.90
5571;BMP180;2808;51.240;6.794;2022-08-19T04:19:32;100844.00;;;19.90
5571;BMP180;2808;51.240;6.794;2022-08-19T04:21:59;100847.00;;;19.90
5571;BMP180;2808;51.240;6.794;2022-08-19T04:24:28;100835.00;;;19.90
5571;BMP180;2808;51.240;6.794;2022-08-19T04:26:58;100836.00;;;19.80
5571;BMP180;2808;51.240;6.794;2022-08-19T04:29:26;100837.00;;;19.80
5571;BMP180;2808;51.240;6.794;2022-08-19T04:31:55;100844.00;;;19.80
5571;BMP180;2808;51.240;6.794;2022-08-19T04:34:25;100846.00;;;19.80
5571;BMP180;2808;51.240;6.794;2022-08-19T04:36:54;100846.00;;;19.80
5571;BMP180;2808;51.240;6.794;2022-08-19T04:39:24;100847.00;;;19.80
5571;BMP180;2808;51.240;6.794;2022-08-19T04:42:15;100844.00;;;19.80
5571;BMP180;2808;51.240;6.794;2022-08-19T04:45:01;100845.00;;;19.90
5571;BMP180;2808;51.240;6.794;2022-08-19T04:47:29;100836.00;;;19.90
5571;BMP180;2808;51.240;6.794;2022-08-19T04:49:57;100854.00;;;20.00
5571;BMP180;2808;51.240;6.794;2022-08-19T04:52:24;100854.00;;;20.00
5571;BMP180;2808;51.240;6.794;2022-08-19T04:54:52;100864.00;;;20.00
5571;BMP180;2808;51.240;6.794;2022-08-19T04:57:22;100861.00;;;20.00
5571;BMP180;2808;51.240;6.794;2022-08-19T04:59:54;100865.00;;;20.00
5571;BMP180;2808;51.240;6.794;2022-08-19T05:02:21;100869.00;;;20.00
5571;BMP180;2808;51.240;6.794;2022-08-19T05:04:51;100867.00;;;20.10
5571;BMP180;2808;51.240;6.794;2022-08-19T05:07:22;100876.00;;;20.30
5571;BMP180;2808;51.240;6.794;2022-08-19T05:09:50;100884.00;;;20.50
5571;BMP180;2808;51.240;6.794;2022-08-19T05:12:18;100882.00;;;20.60
5571;BMP180;2808;51.240;6.794;2022-08-19T05:14:47;100894.00;;;20.80
5571;BMP180;2808;51.240;6.794;2022-08-19T05:17:15;100889.00;;;20.90
5571;BMP180;2808;51.240;6.794;2022-08-19T05:19:46;100896.00;;;21.10
5571;BMP180;2808;51.240;6.794;2022-08-19T05:22:30;100886.00;;;21.20
5571;BMP180;2808;51.240;6.794;2022-08-19T05:25:04;100896.00;;;21.20
5571;BMP180;2808;51.240;6.794;2022-08-19T05:27:32;100891.00;;;21.20
5571;BMP180;2808;51.240;6.794;2022-08-19T05:30:02;100902.00;;;21.30
5571;BMP180;2808;51.240;6.794;2022-08-19T05:32:30;100891.00;;;21.40
5571;BMP180;2808;51.240;6.794;2022-08-19T05:34:58;100906.00;;;21.60
5571;BMP180;2808;51.240;6.794;2022-08-19T05:37:26;100905.00;;;21.70
5571;BMP180;2808;51.240;6.794;2022-08-19T05:39:54;100913.00;;;21.90
5571;BMP180;2808;51.240;6.794;2022-08-19T05:42:22;100905.00;;;22.10
5571;BMP180;2808;51.240;6.794;2022-08-19T05:44:50;100908.00;;;22.30
5571;BMP180;2808;51.240;6.794;2022-08-19T05:47:21;100900.00;;;22.40
5571;BMP180;2808;51.240;6.794;2022-08-19T05:49:49;100910.00;;;22.60
5571;BMP180;2808;51.240;6.794;2022-08-19T05:52:18;100904.00;;;22.70
5571;BMP180;2808;51.240;6.794;2022-08-19T05:54:55;100904.00;;;22.70
5571;BMP180;2808;51.240;6.794;2022-08-19T05:57:25;100898.00;;;22.70
5571;BMP180;2808;51.240;6.794;2022-08-19T05:59:54;100893.00;;;22.80
5571;BMP180;2808;51.240;6.794;2022-08-19T06:02:24;100893.00;;;22.80
5571;BMP180;2808;51.240;6.794;2022-08-19T06:04:52;100897.00;;;22.90
5571;BMP180;2808;51.240;6.794;2022-08-19T06:07:20;100893.00;;;22.90
5571;BMP180;2808;51.240;6.794;2022-08-19T06:09:47;100896.00;;;23.00
5571;BMP180;2808;51.240;6.794;2022-08-19T06:12:15;100894.00;;;23.00
5571;BMP180;2808;51.240;6.794;2022-08-19T06:14:45;100892.00;;;23.00
5571;BMP180;2808;51.240;6.794;2022-08-19T06:17:12;100889.00;;;23.00
5571;BMP180;2808;51.240;6.794;2022-08-19T06:19:43;100887.00;;;23.20
5571;BMP180;2808;51.240;6.794;2022-08-19T06:22:11;100896.00;;;23.40
5571;BMP180;2808;51.240;6.794;2022-08-19T06:24:40;100902.00;;;23.60
5571;BMP180;2808;51.240;6.794;2022-08-19T06:27:08;100896.00;;;23.80
5571;BMP180;2808;51.240;6.794;2022-08-19T06:29:36;100899.00;;;23.80
5571;BMP180;2808;51.240;6.794;2022-08-19T06:32:05;100888.00;;;23.80
5571;BMP180;2808;51.240;6.794;2022-08-19T06:34:34;100879.00;;;23.90
5571;BMP180;2808;51.240;6.794;2022-08-19T06:37:03;100885.00;;;24.00
5571;BMP180;2808;51.240;6.794;2022-08-19T06:39:36;100892.00;;;24.20
5571;BMP180;2808;51.240;6.794;2022-08-19T06:42:08;100898.00;;;24.30
5571;BMP180;2808;51.240;6.794;2022-08-19T06:44:39;100897.00;;;24.30
5571;BMP180;2808;51.240;6.794;2022-08-19T06:47:09;100888.00;;;24.50
5571;BMP180;2808;51.240;6.794;2022-08-19T06:49:37;100905.00;;;24.90
5571;BMP180;2808;51.240;6.794;2022-08-19T06:52:06;100890.00;;;25.30
5571;BMP180;2808;51.240;6.794;2022-08-19T06:54:34;100899.00;;;25.30
5571;BMP180;2808;51.240;6.794;2022-08-19T06:57:03;100903.00;;;25.30
5571;BMP180;2808;51.240;6.794;2022-08-19T06:59:31;100902.00;;;25.50
5571;BMP180;2808;51.240;6.794;2022-08-19T07:02:00;100912.00;;;25.80
5571;BMP180;2808;51.240;6.794;2022-08-19T07:04:29;100907.00;;;25.90
5571;BMP180;2808;51.240;6.794;2022-08-19T07:06:59;100916.00;;;25.90
5571;BMP180;2808;51.240;6.794;2022-08-19T07:09:29;100901.00;;;25.90
5571;BMP180;2808;51.240;6.794;2022-08-19T07:11:57;100902.00;;;25.80
5571;BMP180;2808;51.240;6.794;2022-08-19T07:14:27;100901.00;;;25.60
5571;BMP180;2808;51.240;6.794;2022-08-19T07:16:56;100910.00;;;25.30
5571;BMP180;2808;51.240;6.794;2022-08-19T07:19:26;100912.00;;;25.20
5571;BMP180;2808;51.240;6.794;2022-08-19T07:21:55;100917.00;;;24.80
5571;BMP180;2808;51.240;6.794;2022-08-19T07:24:24;100921.00;;;24.60
5571;BMP180;2808;51.240;6.794;2022-08-19T07:26:55;100927.00;;;24.40
5571;BMP180;2808;51.240;6.794;2022-08-19T07:29:29;100931.00;;;24.60
5571;BMP180;2808;51.240;6.794;2022-08-19T07:31:59;100937.00;;;24.60
5571;BMP180;2808;51.240;6.794;2022-08-19T07:34:29;100937.00;;;24.80
5571;BMP180;2808;51.240;6.794;2022-08-19T07:36:57;100936.00;;;24.90
5571;BMP180;2808;51.240;6.794;2022-08-19T07:39:30;100938.00;;;25.00
5571;BMP180;2808;51.240;6.794;2022-08-19T07:42:03;100939.00;;;25.30
5571;BMP180;2808;51.240;6.794;2022-08-19T07:44:36;100947.00;;;25.30
5571;BMP180;2808;51.240;6.794;2022-08-19T07:47:05;100947.00;;;25.50
5571;BMP180;2808;51.240;6.794;2022-08-19T07:49:33;100951.00;;;25.70
5571;BMP180;2808;51.240;6.794;2022-08-19T07:52:03;100955.00;;;26.10
5571;BMP180;2808;51.240;6.794;2022-08-19T07:54:32;100960.00;;;26.50
5571;BMP180;2808;51.240;6.794;2022-08-19T07:57:03;100955.00;;;27.00
5571;BMP180;2808;51.240;6.794;2022-08-19T07:59:31;100956.00;;;27.40
5571;BMP180;2808;51.240;6.794;2022-08-19T08:01:59;100969.00;;;27.40
5571;BMP180;2808;51.240;6.794;2022-08-19T08:04:27;100972.00;;;27.30
5571;BMP180;2808;51.240;6.794;2022-08-19T08:07:14;100969.00;;;27.10
5571;BMP180;2808;51.240;6.794;2022-08-19T08:09:59;100979.00;;;27.00
5571;BMP180;2808;51.240;6.794;2022-08-19T08:12:31;100971.00;;;26.70
5571;BMP180;2808;51.240;6.794;2022-08-19T08:15:03;100982.00;;;26.50
5571;BMP180;2808;51.240;6.794;2022-08-19T08:17:32;100974.00;;;26.20
5571;BMP180;2808;51.240;6.794;2022-08-19T08:19:59;100985.00;;;26.20
5571;BMP180;2808;51.240;6.794;2022-08-19T08:22:27;100974.00;;;26.20
5571;BMP180;2808;51.240;6.794;2022-08-19T08:25:19;100985.00;;;26.20
5571;BMP180;2808;51.240;6.794;2022-08-19T08:27:49;100987.00;;;26.20
5571;BMP180;2808;51.240;6.794;2022-08-19T08:30:18;100987.00;;;26.30
5571;BMP180;2808;51.240;6.794;2022-08-19T08:32:46;100985.00;;;26.50
5571;BMP180;2808;51.240;6.794;2022-08-19T08:35:16;100994.00;;;26.80
5571;BMP180;2808;51.240;6.794;2022-08-19T08:37:44;100992.00;;;27.10
5571;BMP180;2808;51.240;6.794;2022-08-19T08:40:18;100985.00;;;27.10
5571;BMP180;2808;51.240;6.794;2022-08-19T08:42:53;100993.00;;;27.00
5571;BMP180;2808;51.240;6.794;2022-08-19T08:45:24;100990.00;;;27.10
5571;BMP180;2808;51.240;6.794;2022-08-19T08:47:57;100985.00;;;27.10
5571;BMP180;2808;51.240;6.794;2022-08-19T08:50:32;100979.00;;;27.40
5571;BMP180;2808;51.240;6.794;2022-08-19T08:53:03;100980.00;;;27.60
5571;BMP180;2808;51.240;6.794;2022-08-19T08:55:33;100974.00;;;27.50
5571;BMP180;2808;51.240;6.794;2022-08-19T08:58:04;100973.00;;;27.30
5571;BMP180;2808;51.240;6.794;2022-08-19T09:00:36;100975.00;;;27.20
5571;BMP180;2808;51.240;6.794;2022-08-19T09:03:15;100973.00;;;27.00
5571;BMP180;2808;51.240;6.794;2022-08-19T09:06:00;100978.00;;;27.00
5571;BMP180;2808;51.240;6.794;2022-08-19T09:08:37;100975.00;;;26.90
5571;BMP180;2808;51.240;6.794;2022-08-19T09:11:24;100974.00;;;26.70
5571;BMP180;2808;51.240;6.794;2022-08-19T09:14:34;100979.00;;;26.60
5571;BMP180;2808;51.240;6.794;2022-08-19T09:17:11;100968.00;;;26.70
5571;BMP180;2808;51.240;6.794;2022-08-19T09:19:59;100980.00;;;27.00
5571;BMP180;2808;51.240;6.794;2022-08-19T09:23:09;100986.00;;;27.10
5571;BMP180;2808;51.240;6.794;2022-08-19T09:25:44;100984.00;;;27.50
5571;BMP180;2808;51.240;6.794;2022-08-19T09:28:13;100974.00;;;27.60
5571;BMP180;2808;51.240;6.794;2022-08-19T09:30:54;100976.00;;;27.60
5571;BMP180;2808;51.240;6.794;2022-08-19T09:33:24;100980.00;;;27.60
5571;BMP180;2808;51.240;6.794;2022-08-19T09:36:03;100975.00;;;27.60
5571;BMP180;2808;51.240;6.794;2022-08-19T09:38:31;100975.00;;;27.60
5571;BMP180;2808;51.240;6.794;2022-08-19T09:41:03;100977.00;;;27.60
5571;BMP180;2808;51.240;6.794;2022-08-19T09:43:34;100972.00;;;27.60
5571;BMP180;2808;51.240;6.794;2022-08-19T09:46:09;100984.00;;;27.60
5571;BMP180;2808;51.240;6.794;2022-08-19T09:48:59;100981.00;;;27.60
5571;BMP180;2808;51.240;6.794;2022-08-19T09:51:27;100980.00;;;27.60
5571;BMP180;2808;51.240;6.794;2022-08-19T09:54:04;100980.00;;;27.60
5571;BMP180;2808;51.240;6.794;2022-08-19T09:56:50;100975.00;;;27.60
5571;BMP180;2808;51.240;6.794;2022-08-19T09:59:36;100976.00;;;27.70
5571;BMP180;2808;51.240;6.794;2022-08-19T10:02:09;100966.00;;;27.90
5571;BMP180;2808;51.240;6.794;2022-08-19T10:04:40;100975.00;;;28.00
5571;BMP180;2808;51.240;6.794;2022-08-19T10:07:25;100970.00;;;28.10
5571;BMP180;2808;51.240;6.794;2022-08-19T10:09:52;100974.00;;;28.20
5571;BMP180;2808;51.240;6.794;2022-08-19T10:12:24;100980.00;;;28.30
5571;BMP180;2808;51.240;6.794;2022-08-19T10:14:54;100979.00;;;28.10
5571;BMP180;2808;51.240;6.794;2022-08-19T10:17:25;100969.00;;;28.10
5571;BMP180;2808;51.240;6.794;2022-08-19T10:19:55;100968.00;;;27.90
5571;BMP180;2808;51.240;6.794;2022-08-19T10:22:27;100973.00;;;27.80
5571;BMP180;2808;51.240;6.794;2022-08-19T10:25:13;100969.00;;;27.60
5571;BMP180;2808;51.240;6.794;2022-08-19T10:27:45;100959.00;;;27.40
5571;BMP180;2808;51.240;6.794;2022-08-19T10:30:18;100955.00;;;27.30
5571;BMP180;2808;51.240;6.794;2022-08-19T10:32:51;100948.00;;;27.20
5571;BMP180;2808;51.240;6.794;2022-08-19T10:35:22;100953.00;;;27.10
5571;BMP180;2808;51.240;6.794;2022-08-19T10:37:51;100962.00;;;27.10
5571;BMP180;2808;51.240;6.794;2022-08-19T10:44:10;100959.00;;;27.40
5571;BMP180;2808;51.240;6.794;2022-08-19T10:49:41;100949.00;;;27.30
5571;BMP180;2808;51.240;6.794;2022-08-19T10:52:29;100957.00;;;27.30
5571;BMP180;2808;51.240;6.794;2022-08-19T10:58:35;100955.00;;;27.20
5571;BMP180;2808;51.240;6.794;2022-08-19T11:04:49;100961.00;;;27.30
5571;BMP180;2808;51.240;6.794;2022-08-19T11:10:55;100954.00;;;27.10
5571;BMP180;2808;51.240;6.794;2022-08-19T11:13:54;100963.00;;;27.10
5571;BMP180;2808;51.240;6.794;2022-08-19T11:20:16;100944.00;;;27.00
5571;BMP180;2808;51.240;6.794;2022-08-19T11:23:02;100946.00;;;27.10
5571;BMP180;2808;51.240;6.794;2022-08-19T11:25:33;100941.00;;;27.10
5571;BMP180;2808;51.240;6.794;2022-08-19T11:28:10;100943.00;;;27.20
5571;BMP180;2808;51.240;6.794;2022-08-19T11:30:44;100944.00;;;27.40
5571;BMP180;2808;51.240;6.794;2022-08-19T11:33:15;100940.00;;;27.40
5571;BMP180;2808;51.240;6.794;2022-08-19T11:35:51;100942.00;;;27.60
5571;BMP180;2808;51.240;6.794;2022-08-19T11:38:18;100937.00;;;27.80
5571;BMP180;2808;51.240;6.794;2022-08-19T11:40:57;100937.00;;;27.90
5571;BMP180;2808;51.240;6.794;2022-08-19T11:43:28;100932.00;;;27.90
5571;BMP180;2808;51.240;6.794;2022-08-19T11:46:05;100927.00;;;27.70
5571;BMP180;2808;51.240;6.794;2022-08-19T11:48:38;100929.00;;;27.60
5571;BMP180;2808;51.240;6.794;2022-08-19T11:51:14;100923.00;;;27.50
5571;BMP180;2808;51.240;6.794;2022-08-19T11:53:42;100916.00;;;27.50
5571;BMP180;2808;51.240;6.794;2022-08-19T11:56:15;100930.00;;;27.60
5571;BMP180;2808;51.240;6.794;2022-08-19T11:58:46;100925.00;;;27.50
5571;BMP180;2808;51.240;6.794;2022-08-19T12:01:20;100926.00;;;27.60
5571;BMP180;2808;51.240;6.794;2022-08-19T12:03:51;100929.00;;;27.60
5571;BMP180;2808;51.240;6.794;2022-08-19T12:06:22;100924.00;;;27.70
5571;BMP180;2808;51.240;6.794;2022-08-19T12:09:08;100926.00;;;27.70
5571;BMP180;2808;51.240;6.794;2022-08-19T12:11:41;100935.00;;;27.70
5571;BMP180;2808;51.240;6.794;2022-08-19T12:14:13;100924.00;;;27.60
5571;BMP180;2808;51.240;6.794;2022-08-19T12:16:40;100923.00;;;27.40
5571;BMP180;2808;51.240;6.794;2022-08-19T12:19:13;100908.00;;;27.40
5571;BMP180;2808;51.240;6.794;2022-08-19T12:21:44;100920.00;;;27.30
5571;BMP180;2808;51.240;6.794;2022-08-19T12:24:20;100916.00;;;27.20
5571;BMP180;2808;51.240;6.794;2022-08-19T12:26:49;100918.00;;;27.20
5571;BMP180;2808;51.240;6.794;2022-08-19T12:29:19;100907.00;;;27.20
5571;BMP180;2808;51.240;6.794;2022-08-19T12:31:47;100916.00;;;27.20
5571;BMP180;2808;51.240;6.794;2022-08-19T12:34:14;100908.00;;;27.20
5571;BMP180;2808;51.240;6.794;2022-08-19T12:36:43;100905.00;;;27.20
5571;BMP180;2808;51.240;6.794;2022-08-19T12:39:11;100913.00;;;27.30
5571;BMP180;2808;51.240;6.794;2022-08-19T12:41:38;100910.00;;;27.50
5571;BMP180;2808;51.240;6.794;2022-08-19T12:44:06;100906.00;;;27.60
5571;BMP180;2808;51.240;6.794;2022-08-19T12:46:34;100907.00;;;27.60
5571;BMP180;2808;51.240;6.794;2022-08-19T12:49:01;100899.00;;;27.50
5571;BMP180;2808;51.240;6.794;2022-08-19T12:51:29;100903.00;;;27.40
5571;BMP180;2808;51.240;6.794;2022-08-19T12:53:58;100908.00;;;27.30
5571;BMP180;2808;51.240;6.794;2022-08-19T12:56:27;100909.00;;;27.30
5571;BMP180;2808;51.240;6.794;2022-08-19T12:58:55;100899.00;;;27.20
5571;BMP180;2808;51.240;6.794;2022-08-19T13:01:22;100910.00;;;27.30
5571;BMP180;2808;51.240;6.794;2022-08-19T13:03:53;100904.00;;;27.30
5571;BMP180;2808;51.240;6.794;2022-08-19T13:06:20;100900.00;;;27.30
5571;BMP180;2808;51.240;6.794;2022-08-19T13:08:48;100898.00;;;27.30
5571;BMP180;2808;51.240;6.794;2022-08-19T13:11:19;100897.00;;;27.30
5571;BMP180;2808;51.240;6.794;2022-08-19T13:13:52;100899.00;;;27.30
5571;BMP180;2808;51.240;6.794;2022-08-19T13:16:24;100898.00;;;27.40
5571;BMP180;2808;51.240;6.794;2022-08-19T13:18:55;100896.00;;;27.40
5571;BMP180;2808;51.240;6.794;2022-08-19T13:21:25;100896.00;;;27.30
5571;BMP180;2808;51.240;6.794;2022-08-19T13:23:53;100890.00;;;27.20
5571;BMP180;2808;51.240;6.794;2022-08-19T13:26:22;100882.00;;;27.20
5571;BMP180;2808;51.240;6.794;2022-08-19T13:28:50;100883.00;;;27.20
5571;BMP180;2808;51.240;6.794;2022-08-19T13:31:38;100888.00;;;27.30
5571;BMP180;2808;51.240;6.794;2022-08-19T13:34:28;100881.00;;;27.30
5571;BMP180;2808;51.240;6.794;2022-08-19T13:36:56;100883.00;;;27.20
5571;BMP180;2808;51.240;6.794;2022-08-19T13:39:24;100876.00;;;27.20
5571;BMP180;2808;51.240;6.794;2022-08-19T13:41:54;100877.00;;;27.20
5571;BMP180;2808;51.240;6.794;2022-08-19T13:44:22;100878.00;;;27.10
5571;BMP180;2808;51.240;6.794;2022-08-19T13:46:49;100868.00;;;27.10
5571;BMP180;2808;51.240;6.794;2022-08-19T13:49:18;100868.00;;;27.00
5571;BMP180;2808;51.240;6.794;2022-08-19T13:51:46;100868.00;;;27.00
5571;BMP180;2808;51.240;6.794;2022-08-19T13:54:14;100868.00;;;27.10
5571;BMP180;2808;51.240;6.794;2022-08-19T13:56:42;100858.00;;;27.10
5571;BMP180;2808;51.240;6.794;2022-08-19T13:59:12;100857.00;;;27.10
5571;BMP180;2808;51.240;6.794;2022-08-19T14:01:40;100860.00;;;27.00
5571;BMP180;2808;51.240;6.794;2022-08-19T14:04:08;100859.00;;;26.90
5571;BMP180;2808;51.240;6.794;2022-08-19T14:06:35;100857.00;;;27.00
5571;BMP180;2808;51.240;6.794;2022-08-19T14:09:03;100849.00;;;27.00
5571;BMP180;2808;51.240;6.794;2022-08-19T14:11:31;100849.00;;;27.00
5571;BMP180;2808;51.240;6.794;2022-08-19T14:13:59;100850.00;;;27.10
5571;BMP180;2808;51.240;6.794;2022-08-19T14:16:28;100854.00;;;27.10
5571;BMP180;2808;51.240;6.794;2022-08-19T14:18:56;100858.00;;;27.10
5571;BMP180;2808;51.240;6.794;2022-08-19T14:21:24;100844.00;;;27.10
5571;BMP180;2808;51.240;6.794;2022-08-19T14:23:52;100843.00;;;27.10
5571;BMP180;2808;51.240;6.794;2022-08-19T14:26:21;100849.00;;;27.20
5571;BMP180;2808;51.240;6.794;2022-08-19T14:28:53;100848.00;;;27.30
5571;BMP180;2808;51.240;6.794;2022-08-19T14:31:23;100853.00;;;27.30
5571;BMP180;2808;51.240;6.794;2022-08-19T14:33:53;100851.00;;;27.40
5571;BMP180;2808;51.240;6.794;2022-08-19T14:36:21;100855.00;;;27.30
5571;BMP180;2808;51.240;6.794;2022-08-19T14:38:49;100854.00;;;27.30
5571;BMP180;2808;51.240;6.794;2022-08-19T14:41:19;100851.00;;;27.30
5571;BMP180;2808;51.240;6.794;2022-08-19T14:43:48;100854.00;;;27.40
5571;BMP180;2808;51.240;6.794;2022-08-19T14:46:18;100856.00;;;27.40
5571;BMP180;2808;51.240;6.794;2022-08-19T14:48:47;100859.00;;;27.40
5571;BMP180;2808;51.240;6.794;2022-08-19T14:51:17;100858.00;;;27.40
5571;BMP180;2808;51.240;6.794;2022-08-19T14:53:45;100869.00;;;27.40
5571;BMP180;2808;51.240;6.794;2022-08-19T14:56:16;100866.00;;;27.50
5571;BMP180;2808;51.240;6.794;2022-08-19T14:58:45;100866.00;;;27.50
5571;BMP180;2808;51.240;6.794;2022-08-19T15:01:15;100864.00;;;27.40
5571;BMP180;2808;51.240;6.794;2022-08-19T15:03:43;100866.00;;;27.40